Startpagina
METAR-TAF:

METAR-TAF

Vliegvelden :

Badajoz, Spanje

breedte: 38-53N, lengte: 006-49W, hoogte: 185 m

Actueel weer

Dit bericht is 32 minuten geleden gemaakt, om 18:00 UTC
Wind 6 kt uit het noorden
Temperatuur 15°C
Vochtigheid 67%
Druk 1028 hPa
Zicht 10 km of meer
Verspreide wolken op 4900 ft

METAR: LEBZ 181800Z 36006KT 9999 SCT049 15/09 Q1028

Tijdstip: 19:32 (18:32 UTC)

Verwachting

Dit bericht is 1 uur en het 32 minuten geleden gemaakt, om 17:00 UTC
Verwachting geldig van 18 om 18 UTC tot 19 om 18 UTC
Wind 5 kt uit het noordnoordoosten
Zicht 10 km of meer
geen wolken onder 1500 m en geen cumulonimbus
Wijzigt naar
van 19 om 09 UTC tot 19 om 11 UTC
Wind 10 kt uit het oosten

TAF: LEBZ 181700Z 1818/1918 02005KT CAVOK TX19/1915Z TN03/1906Z BECMG 1909/1911 09010KT

Waarnemingen en weersverwachtingen van meer dan 4000 vliegvelden (METAR en TAF).

De beschikbare stations zijn de gele en rode punten op de kaart.

Ga met uw muis naar het station om de naam te zien.

Klik dan om waarnemingen en weersverwachtingen te zien.

kaart wijzigen: klik op de groene knoppen met een zwart kruis om in te zoomen, op de groene knop met een streepje om uit te zoomen of op de groene pijlen voor aangrenzende kaarten.


METAR-TAF: